CAL772 WADD-RCTP
Flight info
| Callsign | CAL772 |
|---|---|
| Flight time | N/A |
| Altitude | 36000 |
| Route | DOBMA M522 ELANG/N0480F370 M522 VJN M646 OLRAX/N0476F380 W3 LUBAN/N0477F390 B591 SANRO M646 POTIB Q14 TNN TNN1A |
| Aircraft | B77W/H-SDE1E2E3FGHIJ2J3J4J5M1RWXY/LB1D1 |
Departure
| Time | N/A |
|---|---|
| Airport | Denpasar I Gusti Ngurah Rai International Airport (WADD) |
Arrival
| Time | 2026-05-06 13:16 |
|---|---|
| Airport | Taiwan Taoyuan International Airport (RCTP) |
| Time | Latitude | Longitude | Altitude | Speed | Heading |
|---|---|---|---|---|---|
| 2026-05-06 12:55 | 23.69617 | 120.27367 | 30285 ft | 479 kts | 7° |
| 2026-05-06 12:55 | 23.72824 | 120.28252 | 29809 ft | 475 kts | 13° |
| 2026-05-06 12:56 | 23.75970 | 120.29322 | 29252 ft | 470 kts | 14° |
| 2026-05-06 12:56 | 23.79060 | 120.30390 | 28673 ft | 466 kts | 14° |
| 2026-05-06 12:56 | 23.82152 | 120.31460 | 28104 ft | 462 kts | 14° |
| 2026-05-06 12:56 | 23.85202 | 120.32516 | 27522 ft | 459 kts | 14° |
| 2026-05-06 12:57 | 23.88242 | 120.33569 | 26955 ft | 455 kts | 15° |
| 2026-05-06 12:57 | 23.91264 | 120.34615 | 26406 ft | 451 kts | 15° |
| 2026-05-06 12:57 | 23.94230 | 120.35643 | 25837 ft | 447 kts | 15° |
| 2026-05-06 12:57 | 23.97172 | 120.36663 | 25222 ft | 445 kts | 15° |
| 2026-05-06 12:58 | 24.00118 | 120.37685 | 24614 ft | 442 kts | 15° |
| 2026-05-06 12:58 | 24.03078 | 120.38711 | 23998 ft | 440 kts | 16° |
| 2026-05-06 12:58 | 24.05974 | 120.39717 | 23406 ft | 437 kts | 16° |
| 2026-05-06 12:58 | 24.08876 | 120.40724 | 22798 ft | 434 kts | 16° |
| 2026-05-06 12:59 | 24.11685 | 120.41700 | 22200 ft | 432 kts | 16° |
| 2026-05-06 12:59 | 24.14507 | 120.42682 | 21614 ft | 429 kts | 16° |
| 2026-05-06 12:59 | 24.17265 | 120.43641 | 21016 ft | 427 kts | 16° |
| 2026-05-06 12:59 | 24.20098 | 120.44627 | 20395 ft | 425 kts | 16° |
| 2026-05-06 13:00 | 24.22884 | 120.45597 | 19790 ft | 423 kts | 16° |
| 2026-05-06 13:00 | 24.25693 | 120.46575 | 19164 ft | 421 kts | 16° |
| 2026-05-06 13:00 | 24.28490 | 120.47550 | 18538 ft | 418 kts | 16° |
| 2026-05-06 13:00 | 24.31272 | 120.48520 | 17922 ft | 416 kts | 16° |
| 2026-05-06 13:01 | 24.34022 | 120.49479 | 17293 ft | 412 kts | 15° |
| 2026-05-06 13:01 | 24.36735 | 120.50426 | 16697 ft | 407 kts | 16° |
| 2026-05-06 13:01 | 24.39433 | 120.51368 | 16084 ft | 403 kts | 15° |
| 2026-05-06 13:01 | 24.42080 | 120.52293 | 15469 ft | 399 kts | 15° |
| 2026-05-06 13:02 | 24.44706 | 120.53210 | 14856 ft | 395 kts | 15° |
| 2026-05-06 13:02 | 24.47341 | 120.54131 | 14248 ft | 391 kts | 15° |
| 2026-05-06 13:02 | 24.49924 | 120.55034 | 13650 ft | 388 kts | 16° |
| 2026-05-06 13:02 | 24.52473 | 120.55926 | 13057 ft | 384 kts | 16° |
| 2026-05-06 13:03 | 24.55006 | 120.56812 | 12453 ft | 381 kts | 16° |
| 2026-05-06 13:03 | 24.57523 | 120.57694 | 11855 ft | 377 kts | 16° |
| 2026-05-06 13:03 | 24.60034 | 120.58573 | 11260 ft | 374 kts | 16° |
| 2026-05-06 13:03 | 24.62474 | 120.59428 | 10748 ft | 369 kts | 16° |
| 2026-05-06 13:04 | 24.64897 | 120.60278 | 10610 ft | 352 kts | 16° |
| 2026-05-06 13:04 | 24.67097 | 120.61302 | 10466 ft | 339 kts | 30° |
| 2026-05-06 13:04 | 24.68954 | 120.62803 | 10337 ft | 326 kts | 38° |
| 2026-05-06 13:04 | 24.70667 | 120.64390 | 10229 ft | 314 kts | 40° |
| 2026-05-06 13:05 | 24.72281 | 120.65945 | 10084 ft | 303 kts | 41° |
| 2026-05-06 13:05 | 24.73845 | 120.67473 | 9851 ft | 297 kts | 41° |
| 2026-05-06 13:05 | 24.75381 | 120.68980 | 9451 ft | 298 kts | 41° |
| 2026-05-06 13:05 | 24.76939 | 120.70511 | 9059 ft | 298 kts | 41° |
| 2026-05-06 13:06 | 24.78467 | 120.72015 | 8700 ft | 297 kts | 41° |
| 2026-05-06 13:06 | 24.80013 | 120.73535 | 8315 ft | 295 kts | 41° |
| 2026-05-06 13:06 | 24.81524 | 120.75024 | 7972 ft | 291 kts | 41° |
| 2026-05-06 13:06 | 24.83038 | 120.76514 | 7621 ft | 288 kts | 41° |
| 2026-05-06 13:07 | 24.84512 | 120.77966 | 7296 ft | 285 kts | 41° |
| 2026-05-06 13:07 | 24.85988 | 120.79421 | 6975 ft | 284 kts | 41° |
| 2026-05-06 13:07 | 24.87473 | 120.80884 | 6622 ft | 285 kts | 41° |
| 2026-05-06 13:07 | 24.88957 | 120.82347 | 6269 ft | 285 kts | 41° |
| 2026-05-06 13:08 | 24.90412 | 120.83810 | 5922 ft | 286 kts | 47° |
| 2026-05-06 13:08 | 24.91440 | 120.85679 | 5546 ft | 284 kts | 74° |
| 2026-05-06 13:08 | 24.91707 | 120.87791 | 5211 ft | 278 kts | 90° |
| 2026-05-06 13:08 | 24.91683 | 120.89901 | 4915 ft | 272 kts | 93° |
| 2026-05-06 13:09 | 24.91600 | 120.91963 | 4624 ft | 270 kts | 94° |
| 2026-05-06 13:09 | 24.91505 | 120.94022 | 4289 ft | 269 kts | 94° |
| 2026-05-06 13:09 | 24.91411 | 120.96043 | 4201 ft | 256 kts | 94° |
| 2026-05-06 13:09 | 24.91322 | 120.97945 | 4136 ft | 244 kts | 94° |
| 2026-05-06 13:10 | 24.91247 | 120.99779 | 4061 ft | 233 kts | 88° |
| 2026-05-06 13:10 | 24.91658 | 121.01444 | 3968 ft | 218 kts | 60° |
| 2026-05-06 13:10 | 24.92503 | 121.02842 | 3887 ft | 220 kts | 53° |
| 2026-05-06 13:10 | 24.93397 | 121.04098 | 3765 ft | 199 kts | 51° |
| 2026-05-06 13:11 | 24.94264 | 121.05228 | 3661 ft | 182 kts | 50° |
| 2026-05-06 13:11 | 24.95071 | 121.06243 | 3574 ft | 168 kts | 49° |
| 2026-05-06 13:11 | 24.95828 | 121.07185 | 3387 ft | 162 kts | 49° |
| 2026-05-06 13:11 | 24.96569 | 121.08108 | 3193 ft | 160 kts | 50° |
| 2026-05-06 13:12 | 24.97299 | 121.09023 | 2996 ft | 158 kts | 50° |
| 2026-05-06 13:12 | 24.98027 | 121.09937 | 2795 ft | 155 kts | 50° |
| 2026-05-06 13:12 | 24.98733 | 121.10825 | 2600 ft | 154 kts | 50° |
| 2026-05-06 13:12 | 24.99443 | 121.11718 | 2402 ft | 153 kts | 50° |
| 2026-05-06 13:13 | 25.00138 | 121.12594 | 2207 ft | 153 kts | 50° |
| 2026-05-06 13:13 | 25.00840 | 121.13478 | 2008 ft | 151 kts | 50° |
| 2026-05-06 13:13 | 25.01523 | 121.14338 | 1813 ft | 149 kts | 50° |
| 2026-05-06 13:13 | 25.02205 | 121.15198 | 1617 ft | 147 kts | 50° |
| 2026-05-06 13:14 | 25.02879 | 121.16049 | 1424 ft | 147 kts | 50° |
| 2026-05-06 13:14 | 25.03552 | 121.16898 | 1233 ft | 147 kts | 50° |
| 2026-05-06 13:14 | 25.04218 | 121.17739 | 1019 ft | 147 kts | 50° |
| 2026-05-06 13:14 | 25.04892 | 121.18591 | 808 ft | 146 kts | 49° |
| 2026-05-06 13:15 | 25.05563 | 121.19421 | 644 ft | 146 kts | 49° |
| 2026-05-06 13:15 | 25.06229 | 121.20261 | 471 ft | 146 kts | 49° |
| 2026-05-06 13:15 | 25.06887 | 121.21093 | 271 ft | 144 kts | 49° |
| 2026-05-06 13:15 | 25.07559 | 121.21939 | 125 ft | 140 kts | 49° |
| 2026-05-06 13:16 | 25.08143 | 121.22683 | 122 ft | 110 kts | 49° |
| 2026-05-06 13:16 | 25.08562 | 121.23217 | 122 ft | 75 kts | 49° |
| 2026-05-06 13:16 | 25.08822 | 121.23548 | 122 ft | 39 kts | 50° |
| 2026-05-06 13:16 | 25.08918 | 121.23722 | 122 ft | 18 kts | 67° |
| 2026-05-06 13:17 | 25.08945 | 121.23837 | 122 ft | 10 kts | 81° |
| 2026-05-06 13:17 | 25.08957 | 121.23905 | 122 ft | 8 kts | 81° |
| 2026-05-06 13:17 | 25.08941 | 121.23968 | 122 ft | 8 kts | 140° |
| 2026-05-06 13:17 | 25.08893 | 121.23957 | 122 ft | 8 kts | 224° |
| 2026-05-06 13:18 | 25.08852 | 121.23908 | 122 ft | 9 kts | 228° |
| 2026-05-06 13:18 | 25.08801 | 121.23845 | 122 ft | 12 kts | 229° |
| 2026-05-06 13:18 | 25.08742 | 121.23770 | 122 ft | 13 kts | 229° |
| 2026-05-06 13:18 | 25.08683 | 121.23694 | 122 ft | 13 kts | 229° |
| 2026-05-06 13:19 | 25.08621 | 121.23616 | 122 ft | 14 kts | 229° |
| 2026-05-06 13:19 | 25.08549 | 121.23524 | 122 ft | 17 kts | 229° |
| 2026-05-06 13:19 | 25.08465 | 121.23418 | 122 ft | 19 kts | 229° |
| 2026-05-06 13:19 | 25.08371 | 121.23296 | 122 ft | 21 kts | 230° |
| 2026-05-06 13:20 | 25.08272 | 121.23166 | 122 ft | 18 kts | 229° |
| 2026-05-06 13:20 | 25.08204 | 121.23126 | 122 ft | 11 kts | 168° |
| 2026-05-06 13:20 | 25.08157 | 121.23164 | 122 ft | 8 kts | 117° |
| 2026-05-06 13:20 | 25.08132 | 121.23209 | 122 ft | 5 kts | 132° |
| 2026-05-06 13:21 | 25.08102 | 121.23238 | 122 ft | 4 kts | 139° |
| 2026-05-06 13:21 | 25.08085 | 121.23255 | 122 ft | 3 kts | 139° |
| 2026-05-06 13:21 | 25.08081 | 121.23258 | 122 ft | 0 kts | 139° |